createdAt,value
2022-10-05T00:02:02.159Z,48.01
2022-10-05T00:04:29.058Z,48.56
2022-10-05T00:07:07.985Z,50.59
2022-10-05T00:09:34.449Z,53.97
2022-10-05T00:12:13.473Z,56.06
2022-10-05T00:14:39.887Z,56.95
2022-10-05T00:17:06.296Z,57.41
2022-10-05T00:19:34.612Z,57.19
2022-10-05T00:22:12.202Z,56.96
2022-10-05T00:24:38.616Z,56.12
2022-10-05T00:27:19.755Z,55.37
2022-10-05T00:29:46.949Z,51.45
2022-10-05T00:32:13.445Z,48.19
2022-10-05T00:34:39.835Z,46.50
2022-10-05T00:37:06.417Z,45.32
2022-10-05T00:39:33.134Z,44.40
2022-10-05T00:42:08.534Z,41.84
2022-10-05T00:44:41.763Z,35.75
2022-10-05T00:47:47.225Z,21.08
2022-10-05T00:50:25.665Z,15.03
2022-10-05T00:53:07.038Z,12.79
2022-10-05T00:55:41.265Z,13.16
2022-10-05T00:58:25.882Z,14.72
2022-10-05T01:01:05.142Z,16.89
2022-10-05T01:03:35.645Z,15.97
2022-10-05T01:06:29.561Z,15.21
2022-10-05T01:09:11.126Z,17.86
2022-10-05T01:11:49.663Z,18.16
2022-10-05T01:14:39.079Z,19.75
2022-10-05T01:17:11.601Z,23.12
2022-10-05T01:19:50.905Z,25.36
2022-10-05T01:22:40.545Z,29.76
2022-10-05T01:25:30.922Z,31.65
2022-10-05T01:27:59.388Z,35.91
2022-10-05T01:30:25.823Z,41.91
2022-10-05T01:33:21.437Z,45.16
2022-10-05T01:36:23.093Z,47.89
2022-10-05T01:38:55.394Z,49.79
2022-10-05T01:41:47.065Z,53.07
2022-10-05T01:44:14.561Z,55.44
2022-10-05T01:46:44.091Z,55.54
2022-10-05T01:49:44.727Z,57.62
2022-10-05T01:52:34.426Z,59.53
2022-10-05T01:55:22.648Z,59.34
2022-10-05T01:57:55.193Z,65.99
2022-10-05T02:00:21.610Z,71.94
2022-10-05T02:02:49.050Z,73.71
2022-10-05T02:05:22.292Z,73.42
2022-10-05T02:07:57.649Z,72.99
2022-10-05T02:10:26.181Z,73.07
2022-10-05T02:12:56.030Z,73.42
2022-10-05T02:15:25.134Z,72.75
2022-10-05T02:17:55.714Z,72.72
2022-10-05T02:20:27.143Z,72.94
2022-10-05T02:22:55.015Z,73.06
2022-10-05T02:25:23.188Z,71.76
2022-10-05T02:28:15.813Z,69.35
2022-10-05T02:30:48.844Z,69.83
2022-10-05T02:33:33.529Z,61.62
2022-10-05T02:36:20.849Z,61.79
2022-10-05T02:39:08.437Z,66.56
2022-10-05T02:41:58.848Z,70.91
2022-10-05T02:44:37.873Z,72.82
2022-10-05T02:47:18.492Z,72.09
2022-10-05T02:49:53.804Z,72.64
2022-10-05T02:52:25.462Z,72.55
2022-10-05T02:55:15.210Z,71.82
2022-10-05T02:57:49.955Z,70.27
2022-10-05T03:00:17.392Z,69.58
2022-10-05T03:03:01.416Z,69.77
2022-10-05T03:05:46.625Z,73.01
2022-10-05T03:08:23.673Z,73.23
2022-10-05T03:11:14.303Z,73.73
2022-10-05T03:13:59.746Z,74.06
2022-10-05T03:16:29.197Z,72.83
2022-10-05T03:18:58.499Z,73.94
2022-10-05T03:21:33.912Z,74.39
2022-10-05T03:24:12.435Z,73.26
2022-10-05T03:26:45.015Z,73.43
2022-10-05T03:29:32.927Z,72.43
2022-10-05T03:32:00.682Z,72.38
2022-10-05T03:34:36.098Z,71.87
2022-10-05T03:37:28.750Z,70.68
2022-10-05T03:40:00.447Z,71.58
2022-10-05T03:42:26.815Z,71.06
2022-10-05T03:45:14.417Z,70.78
2022-10-05T03:47:52.259Z,70.58
2022-10-05T03:50:37.683Z,69.57
2022-10-05T03:53:06.325Z,70.16
2022-10-05T03:55:48.731Z,70.15
2022-10-05T03:58:29.540Z,70.38
2022-10-05T04:01:07.425Z,70.63
2022-10-05T04:03:36.514Z,71.24
2022-10-05T04:06:19.203Z,70.65
2022-10-05T04:08:59.275Z,69.98
2022-10-05T04:11:31.758Z,69.42
2022-10-05T04:14:01.957Z,59.04
2022-10-05T04:16:31.492Z,58.09
2022-10-05T04:19:00.105Z,55.36
2022-10-05T04:21:30.256Z,55.63
2022-10-05T04:24:19.134Z,55.52
2022-10-05T04:26:49.714Z,54.28
2022-10-05T04:29:25.071Z,53.93
2022-10-05T04:31:56.174Z,54.23
2022-10-05T04:34:56.772Z,52.75
2022-10-05T04:37:48.272Z,51.05
2022-10-05T04:40:33.382Z,50.61
2022-10-05T04:43:17.902Z,50.27
2022-10-05T04:46:02.622Z,49.14
2022-10-05T04:48:50.804Z,48.80
2022-10-05T04:51:50.282Z,49.47
2022-10-05T04:54:35.810Z,47.76
2022-10-05T04:57:03.146Z,47.39
2022-10-05T04:59:51.144Z,46.40
2022-10-05T05:02:29.667Z,46.10
2022-10-05T05:05:17.504Z,46.19
2022-10-05T05:07:46.825Z,45.69
2022-10-05T05:10:25.374Z,44.16
2022-10-05T05:13:00.951Z,42.95
2022-10-05T05:15:36.426Z,43.46
2022-10-05T05:18:07.114Z,44.01
2022-10-05T05:21:09.033Z,44.32
2022-10-05T05:23:44.634Z,45.72
2022-10-05T05:26:23.727Z,46.11
2022-10-05T05:29:14.138Z,44.21
2022-10-05T05:31:48.503Z,42.24
2022-10-05T05:34:52.484Z,43.13
2022-10-05T05:37:35.971Z,44.79
2022-10-05T05:40:17.623Z,44.59
2022-10-05T05:42:50.101Z,45.23
2022-10-05T05:45:22.792Z,43.54
2022-10-05T05:47:52.070Z,43.56
2022-10-05T05:50:21.630Z,37.45
2022-10-05T05:52:53.914Z,28.35
2022-10-05T05:55:35.307Z,27.95
2022-10-05T05:58:16.906Z,27.14
2022-10-05T06:01:01.202Z,29.41
2022-10-05T06:03:37.536Z,29.88
2022-10-05T06:06:10.246Z,28.92
2022-10-05T06:08:42.736Z,31.01
2022-10-05T06:11:14.685Z,32.62
2022-10-05T06:13:41.312Z,35.52
2022-10-05T06:16:22.069Z,34.68
2022-10-05T06:18:52.654Z,37.24
2022-10-05T06:21:27.153Z,37.76
2022-10-05T06:23:59.926Z,36.91
2022-10-05T06:26:57.366Z,42.73
2022-10-05T06:29:24.262Z,46.00
2022-10-05T06:32:02.904Z,49.27
2022-10-05T06:35:06.220Z,50.89
2022-10-05T06:37:42.067Z,50.90
2022-10-05T06:40:39.180Z,51.28
2022-10-05T06:43:15.659Z,53.57
2022-10-05T06:45:48.283Z,56.88
2022-10-05T06:48:24.344Z,57.69
2022-10-05T06:50:58.799Z,59.63
2022-10-05T06:53:35.474Z,60.93
2022-10-05T06:56:10.825Z,74.04
2022-10-05T06:59:03.814Z,76.86
2022-10-05T07:01:35.944Z,77.25
2022-10-05T07:04:34.565Z,77.14
2022-10-05T07:07:07.048Z,78.19
2022-10-05T07:09:55.273Z,78.59
2022-10-05T07:12:44.546Z,79.16
2022-10-05T07:15:34.079Z,80.13
2022-10-05T07:18:22.423Z,78.32
2022-10-05T07:21:11.896Z,76.98
2022-10-05T07:23:53.292Z,76.70
2022-10-05T07:26:27.843Z,76.74
2022-10-05T07:29:34.556Z,75.96
2022-10-05T07:32:10.015Z,76.64
2022-10-05T07:34:55.073Z,76.76
2022-10-05T07:37:48.614Z,78.18
2022-10-05T07:40:23.644Z,80.65
2022-10-05T07:43:05.299Z,82.22
2022-10-05T07:45:51.538Z,84.15
2022-10-05T07:48:21.042Z,86.80
2022-10-05T07:50:56.569Z,88.45
2022-10-05T07:53:25.927Z,92.55
2022-10-05T07:55:53.850Z,92.37
2022-10-05T07:58:31.826Z,93.66
2022-10-05T08:01:11.428Z,93.50
2022-10-05T08:03:47.009Z,95.14
2022-10-05T08:06:25.935Z,96.05
2022-10-05T08:09:07.133Z,98.19
2022-10-05T08:11:55.608Z,100.00
2022-10-05T08:14:44.795Z,98.89
2022-10-05T08:17:21.612Z,99.18
2022-10-05T08:19:59.306Z,100.00
2022-10-05T08:22:29.701Z,100.00
2022-10-05T08:25:01.567Z,100.00
2022-10-05T08:27:42.662Z,100.00
2022-10-05T08:30:10.468Z,100.00
2022-10-05T08:33:05.006Z,98.74
2022-10-05T08:35:37.694Z,99.63
2022-10-05T08:38:16.833Z,100.00
2022-10-05T08:40:49.287Z,100.00
2022-10-05T08:43:30.584Z,100.00
2022-10-05T08:46:24.237Z,100.00
2022-10-05T08:49:12.575Z,100.00
2022-10-05T08:51:54.184Z,100.00
2022-10-05T08:54:39.320Z,100.00
2022-10-05T08:57:14.636Z,100.00
2022-10-05T08:59:59.835Z,100.00
2022-10-05T09:02:28.483Z,100.00
2022-10-05T09:04:58.071Z,100.00
2022-10-05T09:07:41.014Z,100.00
2022-10-05T09:10:49.859Z,100.00
2022-10-05T09:13:22.633Z,100.00
2022-10-05T09:16:07.888Z,100.00
2022-10-05T09:18:44.844Z,100.00
2022-10-05T09:21:30.287Z,100.00
2022-10-05T09:24:11.082Z,100.00
2022-10-05T09:26:40.462Z,100.00
2022-10-05T09:29:42.331Z,100.00
2022-10-05T09:32:33.429Z,100.00
2022-10-05T09:35:37.444Z,100.00
2022-10-05T09:38:13.100Z,100.00
2022-10-05T09:41:12.915Z,100.00
2022-10-05T09:43:58.027Z,100.00
2022-10-05T09:46:43.215Z,100.00
2022-10-05T09:49:21.795Z,100.00
2022-10-05T09:52:03.629Z,100.00
2022-10-05T09:54:40.248Z,100.00
2022-10-05T09:57:34.601Z,100.00
2022-10-05T10:00:13.177Z,100.00
2022-10-05T10:03:18.540Z,100.00
2022-10-05T10:06:11.231Z,100.00
2022-10-05T10:08:46.793Z,100.00
2022-10-05T10:11:16.554Z,100.00
2022-10-05T10:13:52.102Z,100.00
2022-10-05T10:16:37.258Z,100.00
2022-10-05T10:19:48.681Z,100.00
2022-10-05T10:22:23.832Z,100.00
2022-10-05T10:25:06.665Z,100.00
2022-10-05T10:28:00.123Z,100.00
2022-10-05T10:30:43.123Z,100.00
2022-10-05T10:33:37.236Z,100.00
2022-10-05T10:36:17.189Z,100.00
2022-10-05T10:39:03.839Z,100.00
2022-10-05T10:41:39.342Z,100.00
2022-10-05T10:44:27.152Z,100.00
2022-10-05T10:47:06.211Z,100.00
2022-10-05T10:50:09.948Z,100.00
2022-10-05T10:53:21.029Z,100.00
2022-10-05T10:56:05.562Z,100.00
2022-10-05T10:58:38.318Z,100.00
2022-10-05T11:01:25.333Z,100.00
2022-10-05T11:04:13.359Z,100.00
2022-10-05T11:06:49.604Z,100.00
2022-10-05T11:09:22.665Z,100.00
2022-10-05T11:12:12.613Z,100.00
2022-10-05T11:14:42.334Z,100.00
2022-10-05T11:17:17.549Z,100.00
2022-10-05T11:20:04.424Z,100.00
2022-10-05T11:23:10.053Z,100.00
2022-10-05T11:25:54.406Z,100.00
2022-10-05T11:28:48.190Z,100.00
2022-10-05T11:31:30.273Z,100.00
2022-10-05T11:34:07.001Z,100.00
2022-10-05T11:37:00.855Z,100.00
2022-10-05T11:39:53.694Z,100.00
2022-10-05T11:42:39.633Z,100.00
2022-10-05T11:45:19.097Z,100.00
2022-10-05T11:47:48.461Z,100.00
2022-10-05T11:50:21.744Z,100.00
2022-10-05T11:52:50.498Z,100.00
2022-10-05T11:55:52.455Z,100.00
2022-10-05T11:58:23.529Z,100.00
2022-10-05T12:01:01.751Z,100.00
2022-10-05T12:03:41.269Z,100.00
2022-10-05T12:06:32.566Z,100.00
2022-10-05T12:09:05.013Z,100.00
2022-10-05T12:11:53.258Z,100.00
2022-10-05T12:14:37.143Z,100.00
2022-10-05T12:17:11.227Z,100.00
2022-10-05T12:19:45.672Z,100.00
2022-10-05T12:22:15.538Z,100.00
2022-10-05T12:24:44.919Z,100.00
2022-10-05T12:27:17.002Z,100.00
2022-10-05T12:30:28.285Z,100.00
2022-10-05T12:33:17.129Z,100.00
2022-10-05T12:36:05.830Z,100.00
2022-10-05T12:38:38.592Z,100.00
2022-10-05T12:41:08.022Z,100.00
2022-10-05T12:43:38.355Z,100.00
2022-10-05T12:46:13.890Z,100.00
2022-10-05T12:48:43.719Z,100.00
2022-10-05T12:51:27.467Z,100.00
2022-10-05T12:53:59.988Z,100.00
2022-10-05T12:56:49.518Z,100.00
2022-10-05T12:59:41.127Z,100.00
2022-10-05T13:02:24.350Z,100.00
2022-10-05T13:05:14.178Z,100.00
2022-10-05T13:07:46.540Z,100.00
2022-10-05T13:10:12.972Z,100.00
2022-10-05T13:13:01.468Z,100.00
2022-10-05T13:15:47.033Z,100.00
2022-10-05T13:18:52.628Z,100.00
2022-10-05T13:21:48.666Z,100.00
2022-10-05T13:24:23.994Z,100.00
2022-10-05T13:27:15.093Z,100.00
2022-10-05T13:29:54.207Z,100.00
2022-10-05T13:32:23.635Z,100.00
2022-10-05T13:34:53.181Z,100.00
2022-10-05T13:37:28.800Z,100.00
2022-10-05T13:40:01.005Z,100.00
2022-10-05T13:42:45.947Z,100.00
2022-10-05T13:45:23.086Z,100.00
2022-10-05T13:48:13.925Z,100.00
2022-10-05T13:50:48.265Z,100.00
2022-10-05T13:53:26.752Z,100.00
2022-10-05T13:56:00.886Z,100.00
2022-10-05T13:58:33.926Z,100.00
2022-10-05T14:01:22.579Z,100.00
2022-10-05T14:04:20.955Z,100.00
2022-10-05T14:06:47.764Z,100.00
2022-10-05T14:09:20.275Z,100.00
2022-10-05T14:12:11.840Z,100.00
2022-10-05T14:14:57.633Z,100.00
2022-10-05T14:17:33.393Z,100.00
2022-10-05T14:20:00.868Z,100.00
2022-10-05T14:22:27.492Z,100.00
2022-10-05T14:25:03.593Z,100.00
2022-10-05T14:27:33.003Z,100.00
2022-10-05T14:30:09.500Z,100.00
2022-10-05T14:32:52.550Z,100.00
2022-10-05T14:35:21.985Z,100.00
2022-10-05T14:37:58.358Z,100.00
2022-10-05T14:40:30.396Z,100.00
2022-10-05T14:42:58.141Z,100.00
2022-10-05T14:45:25.795Z,100.00
2022-10-05T14:47:53.994Z,100.00
2022-10-05T14:50:29.699Z,100.00
2022-10-05T14:53:11.463Z,100.00
2022-10-05T14:55:37.855Z,100.00
2022-10-05T14:58:30.649Z,100.00
2022-10-05T15:01:15.395Z,100.00
2022-10-05T15:03:47.893Z,100.00
2022-10-05T15:06:20.395Z,100.00
2022-10-05T15:08:53.435Z,100.00
2022-10-05T15:11:42.877Z,100.00
2022-10-05T15:14:17.618Z,100.00
2022-10-05T15:16:44.035Z,100.00
2022-10-05T15:19:15.982Z,100.00
2022-10-05T15:22:08.400Z,100.00
2022-10-05T15:24:44.056Z,100.00
2022-10-05T15:27:16.177Z,100.00
2022-10-05T15:30:17.868Z,100.00
2022-10-05T15:33:21.934Z,100.00
2022-10-05T15:36:11.615Z,100.00
2022-10-05T15:39:08.695Z,100.00
2022-10-05T15:41:47.362Z,100.00
2022-10-05T15:44:36.330Z,100.00
2022-10-05T15:47:10.301Z,100.00
2022-10-05T15:49:49.213Z,100.00
2022-10-05T15:52:23.802Z,100.00
2022-10-05T15:55:27.812Z,100.00
2022-10-05T15:58:08.328Z,100.00
2022-10-05T16:00:45.209Z,100.00
2022-10-05T16:03:34.653Z,100.00
2022-10-05T16:06:24.634Z,100.00
2022-10-05T16:09:12.299Z,100.00
2022-10-05T16:11:51.044Z,100.00
2022-10-05T16:14:46.773Z,100.00
2022-10-05T16:17:15.942Z,100.00
2022-10-05T16:19:48.381Z,100.00
2022-10-05T16:22:36.408Z,100.00
2022-10-05T16:25:23.718Z,100.00
2022-10-05T16:28:19.433Z,100.00
2022-10-05T16:31:07.408Z,100.00
2022-10-05T16:33:58.398Z,100.00
2022-10-05T16:36:29.280Z,100.00
2022-10-05T16:39:04.910Z,100.00
2022-10-05T16:41:32.827Z,100.00
2022-10-05T16:44:14.341Z,100.00
2022-10-05T16:46:57.683Z,100.00
2022-10-05T16:49:38.812Z,100.00
2022-10-05T16:52:08.404Z,100.00
2022-10-05T16:54:48.062Z,100.00
2022-10-05T16:57:20.664Z,100.00
2022-10-05T17:00:51.588Z,100.00
2022-10-05T17:03:20.962Z,100.00
2022-10-05T17:06:12.239Z,100.00
2022-10-05T17:09:00.651Z,100.00
2022-10-05T17:11:42.102Z,100.00
2022-10-05T17:14:17.550Z,100.00
2022-10-05T17:16:47.077Z,100.00
2022-10-05T17:19:47.580Z,100.00
2022-10-05T17:22:31.412Z,100.00
2022-10-05T17:25:14.626Z,100.00
2022-10-05T17:27:56.990Z,100.00
2022-10-05T17:30:29.428Z,100.00
2022-10-05T17:33:04.416Z,100.00
2022-10-05T17:35:52.101Z,100.00
2022-10-05T17:38:23.143Z,100.00
2022-10-05T17:41:14.060Z,100.00
2022-10-05T17:43:40.770Z,100.00
2022-10-05T17:46:10.342Z,100.00
2022-10-05T17:48:48.976Z,100.00
2022-10-05T17:51:57.214Z,100.00
2022-10-05T17:54:43.680Z,100.00
2022-10-05T17:57:10.032Z,100.00
2022-10-05T17:59:44.433Z,100.00
2022-10-05T18:02:19.848Z,100.00
2022-10-05T18:05:04.968Z,100.00
2022-10-05T18:07:35.299Z,100.00
2022-10-05T18:10:16.854Z,100.00
2022-10-05T18:12:50.571Z,100.00
2022-10-05T18:15:40.408Z,100.00
2022-10-05T18:18:34.750Z,100.00
2022-10-05T18:21:13.425Z,100.00
2022-10-05T18:23:51.928Z,100.00
2022-10-05T18:26:40.121Z,100.00
2022-10-05T18:29:15.371Z,100.00
2022-10-05T18:31:55.390Z,100.00
2022-10-05T18:34:30.605Z,100.00
2022-10-05T18:37:15.539Z,100.00
2022-10-05T18:39:51.804Z,100.00
2022-10-05T18:42:27.135Z,100.00
2022-10-05T18:44:57.172Z,100.00
2022-10-05T18:47:38.798Z,100.00
2022-10-05T18:50:14.431Z,100.00
2022-10-05T18:52:55.718Z,100.00
2022-10-05T18:55:56.202Z,100.00
2022-10-05T18:58:36.821Z,100.00
2022-10-05T19:01:41.060Z,100.00
2022-10-05T19:04:43.070Z,100.00
2022-10-05T19:08:03.913Z,100.00
2022-10-05T19:10:36.982Z,100.00
2022-10-05T19:13:18.447Z,100.00
2022-10-05T19:16:06.702Z,100.00
2022-10-05T19:19:06.677Z,100.00
2022-10-05T19:21:39.389Z,100.00
2022-10-05T19:24:10.071Z,100.00
2022-10-05T19:26:58.412Z,100.00
2022-10-05T19:29:58.892Z,100.00
2022-10-05T19:33:04.995Z,100.00
2022-10-05T19:35:50.673Z,100.00
2022-10-05T19:38:20.657Z,100.00
2022-10-05T19:41:13.402Z,100.00
2022-10-05T19:43:39.743Z,100.00
2022-10-05T19:46:26.340Z,100.00
2022-10-05T19:48:53.582Z,100.00
2022-10-05T19:51:29.311Z,100.00
2022-10-05T19:54:25.790Z,100.00
2022-10-05T19:56:53.392Z,100.00
2022-10-05T19:59:26.733Z,100.00
2022-10-05T20:01:55.315Z,100.00
2022-10-05T20:04:41.205Z,100.00
2022-10-05T20:07:17.922Z,100.00
2022-10-05T20:09:59.957Z,100.00
2022-10-05T20:13:14.872Z,100.00
2022-10-05T20:15:59.984Z,100.00
2022-10-05T20:19:03.346Z,100.00
2022-10-05T20:21:37.161Z,100.00
2022-10-05T20:24:18.587Z,100.00
2022-10-05T20:27:06.414Z,100.00
2022-10-05T20:29:37.213Z,100.00
2022-10-05T20:32:08.836Z,100.00
2022-10-05T20:34:41.260Z,100.00
2022-10-05T20:37:08.812Z,100.00
2022-10-05T20:39:35.189Z,100.00
2022-10-05T20:42:01.691Z,100.00
2022-10-05T20:44:28.190Z,100.00
2022-10-05T20:46:58.471Z,100.00
2022-10-05T20:49:30.213Z,100.00
2022-10-05T20:51:59.600Z,100.00
2022-10-05T20:54:26.249Z,100.00
2022-10-05T20:56:53.883Z,100.00
2022-10-05T20:59:20.355Z,100.00
2022-10-05T21:01:49.606Z,100.00
2022-10-05T21:04:16.904Z,100.00
2022-10-05T21:06:43.841Z,100.00
2022-10-05T21:09:11.519Z,100.00
2022-10-05T21:11:39.583Z,100.00
2022-10-05T21:14:06.135Z,100.00
2022-10-05T21:16:34.004Z,100.00
2022-10-05T21:19:00.426Z,100.00
2022-10-05T21:21:28.075Z,100.00
2022-10-05T21:23:54.832Z,100.00
2022-10-05T21:26:21.219Z,100.00
2022-10-05T21:28:47.659Z,100.00
2022-10-05T21:31:14.135Z,100.00
2022-10-05T21:33:40.552Z,100.00
2022-10-05T21:36:06.933Z,100.00
2022-10-05T21:38:33.313Z,100.00
2022-10-05T21:40:59.777Z,100.00
2022-10-05T21:43:26.578Z,100.00
2022-10-05T21:45:54.084Z,100.00
2022-10-05T21:48:20.528Z,100.00
2022-10-05T21:50:47.015Z,100.00
2022-10-05T21:53:14.732Z,100.00
2022-10-05T21:55:41.508Z,100.00
2022-10-05T21:58:07.900Z,100.00
2022-10-05T22:00:34.347Z,100.00
2022-10-05T22:03:00.769Z,100.00
2022-10-05T22:05:27.173Z,100.00
2022-10-05T22:07:53.567Z,100.00
2022-10-05T22:10:19.938Z,100.00
2022-10-05T22:12:47.105Z,100.00
2022-10-05T22:15:13.765Z,100.00
2022-10-05T22:17:40.291Z,100.00
2022-10-05T22:20:07.087Z,100.00
2022-10-05T22:22:33.548Z,100.00
2022-10-05T22:24:59.923Z,100.00
2022-10-05T22:27:27.484Z,100.00
2022-10-05T22:29:54.040Z,100.00
2022-10-05T22:32:20.435Z,100.00
2022-10-05T22:34:46.893Z,100.00
2022-10-05T22:37:13.333Z,100.00
2022-10-05T22:39:40.124Z,100.00
2022-10-05T22:42:06.868Z,100.00
2022-10-05T22:44:33.979Z,100.00
2022-10-05T22:47:00.780Z,100.00
2022-10-05T22:49:27.375Z,100.00
2022-10-05T22:51:54.743Z,100.00
2022-10-05T22:54:21.165Z,100.00
2022-10-05T22:56:47.537Z,100.00
2022-10-05T22:59:13.920Z,100.00
2022-10-05T23:01:40.360Z,100.00
2022-10-05T23:04:08.712Z,100.00
2022-10-05T23:06:35.095Z,100.00
2022-10-05T23:09:01.445Z,100.00
2022-10-05T23:11:27.960Z,100.00
2022-10-05T23:13:56.701Z,100.00
2022-10-05T23:16:24.860Z,100.00
2022-10-05T23:18:52.466Z,100.00
2022-10-05T23:21:20.105Z,100.00
2022-10-05T23:23:51.052Z,100.00
2022-10-05T23:26:20.350Z,100.00
2022-10-05T23:28:47.310Z,100.00
2022-10-05T23:31:18.760Z,100.00
2022-10-05T23:33:45.202Z,100.00
2022-10-05T23:36:16.492Z,100.00
2022-10-05T23:38:43.077Z,100.00
2022-10-05T23:41:09.570Z,100.00
2022-10-05T23:43:36.706Z,100.00
2022-10-05T23:46:04.193Z,100.00
2022-10-05T23:48:31.510Z,100.00
2022-10-05T23:50:58.238Z,100.00
2022-10-05T23:53:24.721Z,100.00
2022-10-05T23:55:51.917Z,100.00
2022-10-05T23:58:18.778Z,100.00
